createdAt,value
2022-12-24T00:01:01.018Z,12.91
2022-12-24T00:03:28.155Z,12.89
2022-12-24T00:05:54.934Z,12.69
2022-12-24T00:08:21.984Z,12.57
2022-12-24T00:10:51.397Z,12.80
2022-12-24T00:13:18.332Z,12.73
2022-12-24T00:15:45.375Z,12.70
2022-12-24T00:18:12.116Z,12.81
2022-12-24T00:20:38.906Z,12.89
2022-12-24T00:23:05.560Z,12.74
2022-12-24T00:25:32.158Z,12.68
2022-12-24T00:27:58.945Z,12.69
2022-12-24T00:30:25.737Z,12.65
2022-12-24T00:32:52.397Z,12.63
2022-12-24T00:35:20.529Z,12.50
2022-12-24T00:37:48.913Z,12.66
2022-12-24T00:40:16.992Z,12.64
2022-12-24T00:42:47.578Z,12.59
2022-12-24T00:45:14.375Z,12.46
2022-12-24T00:47:41.259Z,12.64
2022-12-24T00:50:08.742Z,12.64
2022-12-24T00:52:35.625Z,12.46
2022-12-24T00:55:02.474Z,12.59
2022-12-24T00:57:30.472Z,12.65
2022-12-24T00:59:57.076Z,12.43
2022-12-24T01:02:24.104Z,12.44
2022-12-24T01:05:10.131Z,12.52
2022-12-24T01:07:42.195Z,12.52
2022-12-24T01:10:09.452Z,12.45
2022-12-24T01:12:36.501Z,12.41
2022-12-24T01:15:04.483Z,12.27
2022-12-24T01:17:33.547Z,12.16
2022-12-24T01:20:00.394Z,12.25
2022-12-24T01:22:27.185Z,12.12
2022-12-24T01:24:53.883Z,12.50
2022-12-24T01:27:20.618Z,12.40
2022-12-24T01:29:47.276Z,12.37
2022-12-24T01:32:14.081Z,12.36
2022-12-24T01:34:40.908Z,12.23
2022-12-24T01:37:07.531Z,12.14
2022-12-24T01:39:34.476Z,12.26
2022-12-24T01:42:19.995Z,12.18
2022-12-24T01:44:51.307Z,12.18
2022-12-24T01:47:22.377Z,12.27
2022-12-24T01:49:56.343Z,12.34
2022-12-24T01:52:29.427Z,12.17
2022-12-24T01:55:05.018Z,12.30
2022-12-24T01:57:54.907Z,12.22
2022-12-24T02:00:22.098Z,12.17
2022-12-24T02:02:52.655Z,12.18
2022-12-24T02:05:26.191Z,12.08
2022-12-24T02:07:53.006Z,12.12
2022-12-24T02:10:19.708Z,12.22
2022-12-24T02:12:47.272Z,12.16
2022-12-24T02:15:17.466Z,12.13
2022-12-24T02:17:51.025Z,12.21
2022-12-24T02:20:53.784Z,12.16
2022-12-24T02:23:57.404Z,12.14
2022-12-24T02:27:11.912Z,12.08
2022-12-24T02:30:03.937Z,12.09
2022-12-24T02:32:54.063Z,12.07
2022-12-24T02:35:53.714Z,12.03
2022-12-24T02:38:32.278Z,12.06
2022-12-24T02:41:05.833Z,12.06
2022-12-24T02:43:36.885Z,11.93
2022-12-24T02:46:08.983Z,11.97
2022-12-24T02:48:38.489Z,11.93
2022-12-24T02:51:09.243Z,11.91
2022-12-24T02:53:36.703Z,11.95
2022-12-24T02:56:25.242Z,11.92
2022-12-24T02:59:03.293Z,12.05
2022-12-24T03:02:03.489Z,11.95
2022-12-24T03:05:04.684Z,11.93
2022-12-24T03:07:37.939Z,11.96
2022-12-24T03:10:29.073Z,11.97
2022-12-24T03:13:06.644Z,11.94
2022-12-24T03:15:34.144Z,12.00
2022-12-24T03:18:03.308Z,11.84
2022-12-24T03:20:36.855Z,11.84
2022-12-24T03:23:04.641Z,11.83
2022-12-24T03:25:33.406Z,11.78
2022-12-24T03:28:03.560Z,11.86
2022-12-24T03:30:30.882Z,11.82
2022-12-24T03:32:57.569Z,11.77
2022-12-24T03:35:24.295Z,11.82
2022-12-24T03:37:51.020Z,11.81
2022-12-24T03:40:17.964Z,11.79
2022-12-24T03:42:44.758Z,11.86
2022-12-24T03:45:11.494Z,11.77
2022-12-24T03:47:38.295Z,11.92
2022-12-24T03:50:06.457Z,12.02
2022-12-24T03:52:33.066Z,11.95
2022-12-24T03:54:59.857Z,11.89
2022-12-24T03:57:26.517Z,11.87
2022-12-24T03:59:53.244Z,11.83
2022-12-24T04:02:20.055Z,11.70
2022-12-24T04:04:47.087Z,12.02
2022-12-24T04:07:13.812Z,11.96
2022-12-24T04:09:43.345Z,12.01
2022-12-24T04:12:11.144Z,11.93
2022-12-24T04:14:38.225Z,12.00
2022-12-24T04:17:06.175Z,12.02
2022-12-24T04:19:32.910Z,12.01
2022-12-24T04:21:59.533Z,11.99
2022-12-24T04:24:26.147Z,11.91
2022-12-24T04:26:52.712Z,12.01
2022-12-24T04:29:19.438Z,11.91
2022-12-24T04:31:46.163Z,11.93
2022-12-24T04:34:12.792Z,11.99
2022-12-24T04:36:39.408Z,11.99
2022-12-24T04:39:06.073Z,11.92
2022-12-24T04:41:32.821Z,11.91
2022-12-24T04:43:59.539Z,11.83
2022-12-24T04:46:30.506Z,11.87
2022-12-24T04:48:57.510Z,11.89
2022-12-24T04:51:26.127Z,11.83
2022-12-24T04:53:53.284Z,12.00
2022-12-24T04:56:22.277Z,11.93
2022-12-24T04:58:50.145Z,11.93
2022-12-24T05:01:23.372Z,11.87
2022-12-24T05:03:50.405Z,11.91
2022-12-24T05:06:19.935Z,11.92
2022-12-24T05:08:46.668Z,11.85
2022-12-24T05:11:16.734Z,11.68
2022-12-24T05:13:47.454Z,11.54
2022-12-24T05:16:16.561Z,11.53
2022-12-24T05:18:43.425Z,11.64
2022-12-24T05:21:11.649Z,11.73
2022-12-24T05:23:56.911Z,11.57
2022-12-24T05:26:32.829Z,11.77
2022-12-24T05:29:00.862Z,11.64
2022-12-24T05:31:29.990Z,11.37
2022-12-24T05:33:56.914Z,11.49
2022-12-24T05:36:23.909Z,11.45
2022-12-24T05:38:51.283Z,11.34
2022-12-24T05:41:18.900Z,11.46
2022-12-24T05:43:45.678Z,11.49
2022-12-24T05:46:15.719Z,11.54
2022-12-24T05:48:42.460Z,11.54
2022-12-24T05:51:11.272Z,11.56
2022-12-24T05:53:38.848Z,11.53
2022-12-24T05:56:07.553Z,11.38
2022-12-24T05:58:34.514Z,11.29
2022-12-24T06:01:03.400Z,11.20
2022-12-24T06:03:30.799Z,11.34
2022-12-24T06:06:02.350Z,11.18
2022-12-24T06:08:29.865Z,11.53
2022-12-24T06:10:58.151Z,11.30
2022-12-24T06:13:25.767Z,11.08
2022-12-24T06:15:56.796Z,11.20
2022-12-24T06:18:23.923Z,11.37
2022-12-24T06:20:52.070Z,11.23
2022-12-24T06:23:19.202Z,11.09
2022-12-24T06:25:46.662Z,11.29
2022-12-24T06:28:13.763Z,11.25
2022-12-24T06:30:41.221Z,11.15
2022-12-24T06:33:08.286Z,11.29
2022-12-24T06:35:34.923Z,11.37
2022-12-24T06:38:01.544Z,11.26
2022-12-24T06:40:28.688Z,11.27
2022-12-24T06:42:55.363Z,11.46
2022-12-24T06:45:21.969Z,11.77
2022-12-24T06:47:48.528Z,11.75
2022-12-24T06:50:15.185Z,11.75
2022-12-24T06:52:41.993Z,11.69
2022-12-24T06:55:09.055Z,11.60
2022-12-24T06:57:35.650Z,11.43
2022-12-24T07:00:02.217Z,11.52
2022-12-24T07:02:31.168Z,11.48
2022-12-24T07:04:57.877Z,11.46
2022-12-24T07:07:24.571Z,11.50
2022-12-24T07:09:51.405Z,11.43
2022-12-24T07:12:18.022Z,11.41
2022-12-24T07:14:44.594Z,11.31
2022-12-24T07:17:11.354Z,11.34
2022-12-24T07:19:38.086Z,11.32
2022-12-24T07:22:07.736Z,11.38
2022-12-24T07:24:36.940Z,11.41
2022-12-24T07:27:04.628Z,11.41
2022-12-24T07:29:31.436Z,11.32
2022-12-24T07:31:58.119Z,11.35
2022-12-24T07:34:24.813Z,11.18
2022-12-24T07:36:51.600Z,11.38
2022-12-24T07:39:18.269Z,11.37
2022-12-24T07:41:45.034Z,11.34
2022-12-24T07:44:14.798Z,11.11
2022-12-24T07:46:41.676Z,11.26
2022-12-24T07:49:08.322Z,11.18
2022-12-24T07:51:34.988Z,10.95
2022-12-24T07:54:01.627Z,11.02
2022-12-24T07:56:28.606Z,11.52
2022-12-24T07:58:55.263Z,11.55
2022-12-24T08:01:22.016Z,11.64
2022-12-24T08:03:51.292Z,11.32
2022-12-24T08:06:18.076Z,11.58
2022-12-24T08:08:44.720Z,11.59
2022-12-24T08:11:12.199Z,11.75
2022-12-24T08:13:38.889Z,11.70
2022-12-24T08:16:06.229Z,11.64
2022-12-24T08:18:33.686Z,11.58
2022-12-24T08:21:00.274Z,11.60
2022-12-24T08:23:26.923Z,11.65
2022-12-24T08:25:53.519Z,11.65
2022-12-24T08:28:20.963Z,11.44
2022-12-24T08:30:50.080Z,11.67
2022-12-24T08:33:17.154Z,11.66
2022-12-24T08:35:55.490Z,11.72
2022-12-24T08:38:22.499Z,11.63
2022-12-24T08:40:50.416Z,11.53
2022-12-24T08:43:18.062Z,11.57
2022-12-24T08:45:46.239Z,11.53
2022-12-24T08:48:13.080Z,11.51
2022-12-24T08:50:40.984Z,11.62
2022-12-24T08:53:09.041Z,11.60
2022-12-24T08:55:35.931Z,11.67
2022-12-24T08:58:02.553Z,11.53
2022-12-24T09:00:29.279Z,11.74
2022-12-24T09:02:56.875Z,11.77
2022-12-24T09:05:23.689Z,11.82
2022-12-24T09:07:50.307Z,12.02
2022-12-24T09:10:17.136Z,11.95
2022-12-24T09:12:43.801Z,11.97
2022-12-24T09:15:11.010Z,12.08
2022-12-24T09:17:37.868Z,12.11
2022-12-24T09:20:06.859Z,12.18
2022-12-24T09:22:38.550Z,12.18
2022-12-24T09:25:06.293Z,12.24
2022-12-24T09:27:32.978Z,12.23
2022-12-24T09:29:59.637Z,12.22
2022-12-24T09:32:26.376Z,12.27
2022-12-24T09:34:52.997Z,12.37
2022-12-24T09:37:19.650Z,12.38
2022-12-24T09:39:46.278Z,12.44
2022-12-24T09:42:45.898Z,12.29
2022-12-24T09:45:28.334Z,12.22
2022-12-24T09:48:04.352Z,12.38
2022-12-24T09:51:09.778Z,12.36
2022-12-24T09:53:50.296Z,12.38
2022-12-24T09:56:40.642Z,12.18
2022-12-24T09:59:14.572Z,12.32
2022-12-24T10:01:41.403Z,12.39
2022-12-24T10:04:19.596Z,12.57
2022-12-24T10:06:51.352Z,12.65
2022-12-24T10:09:37.064Z,12.52
2022-12-24T10:12:17.201Z,12.67
2022-12-24T10:15:05.745Z,12.82
2022-12-24T10:17:40.902Z,12.66
2022-12-24T10:20:47.404Z,12.58
2022-12-24T10:23:26.471Z,12.51
2022-12-24T10:26:11.002Z,12.44
2022-12-24T10:28:44.476Z,12.58
2022-12-24T10:31:11.750Z,12.60
2022-12-24T10:33:43.235Z,12.69
2022-12-24T10:36:18.528Z,12.68
2022-12-24T10:38:46.058Z,12.72
2022-12-24T10:41:14.243Z,12.62
2022-12-24T10:43:44.848Z,12.53
2022-12-24T10:46:23.145Z,12.62
2022-12-24T10:49:05.520Z,12.69
2022-12-24T10:51:47.653Z,12.66
2022-12-24T10:54:22.778Z,12.70
2022-12-24T10:57:02.802Z,12.68
2022-12-24T10:59:43.439Z,12.67
2022-12-24T11:02:35.494Z,12.69
2022-12-24T11:05:05.486Z,12.58
2022-12-24T11:07:32.800Z,12.71
2022-12-24T11:10:05.392Z,12.80
2022-12-24T11:12:35.738Z,12.85
2022-12-24T11:15:24.397Z,12.83
2022-12-24T11:18:06.236Z,12.77
2022-12-24T11:20:35.039Z,12.88
2022-12-24T11:23:03.253Z,12.95
2022-12-24T11:25:32.158Z,12.95
2022-12-24T11:28:24.003Z,12.80
2022-12-24T11:31:01.416Z,12.86
2022-12-24T11:33:30.277Z,12.79
2022-12-24T11:36:06.618Z,12.77
2022-12-24T11:38:34.992Z,12.77
2022-12-24T11:41:08.130Z,12.78
2022-12-24T11:43:45.569Z,12.84
2022-12-24T11:46:13.889Z,12.70
2022-12-24T11:48:40.669Z,12.58
2022-12-24T11:51:20.545Z,12.65
2022-12-24T11:54:00.926Z,12.64
2022-12-24T11:56:44.973Z,12.68
2022-12-24T11:59:25.042Z,12.92
2022-12-24T12:01:58.465Z,13.00
2022-12-24T12:04:29.653Z,13.19
2022-12-24T12:07:15.429Z,13.11
2022-12-24T12:09:50.772Z,13.01
2022-12-24T12:12:37.957Z,12.95
2022-12-24T12:15:16.562Z,13.00
2022-12-24T12:18:11.868Z,12.98
2022-12-24T12:20:46.431Z,13.09
2022-12-24T12:23:30.542Z,13.08
2022-12-24T12:26:07.910Z,13.13
2022-12-24T12:29:17.003Z,13.21
2022-12-24T12:32:01.236Z,13.11
2022-12-24T12:34:36.108Z,13.30
2022-12-24T12:37:40.143Z,13.37
2022-12-24T12:40:17.678Z,13.28
2022-12-24T12:43:09.566Z,13.37
2022-12-24T12:45:55.260Z,13.24
2022-12-24T12:48:40.636Z,13.16
2022-12-24T12:51:32.517Z,13.03
2022-12-24T12:54:17.732Z,13.07
2022-12-24T12:56:52.119Z,13.01
2022-12-24T12:59:24.672Z,12.93
2022-12-24T13:02:09.789Z,12.89
2022-12-24T13:04:58.150Z,13.00
2022-12-24T13:07:38.389Z,13.04
2022-12-24T13:10:27.089Z,12.91
2022-12-24T13:13:20.675Z,12.85
2022-12-24T13:16:23.885Z,12.82
2022-12-24T13:18:56.321Z,12.76
2022-12-24T13:21:25.515Z,12.75
2022-12-24T13:24:06.291Z,12.73
2022-12-24T13:26:33.095Z,12.74
2022-12-24T13:29:40.256Z,12.76
2022-12-24T13:32:19.288Z,12.65
2022-12-24T13:34:53.375Z,12.53
2022-12-24T13:37:32.378Z,12.47
2022-12-24T13:40:08.570Z,12.51
2022-12-24T13:43:06.158Z,12.61
2022-12-24T13:45:38.859Z,12.56
2022-12-24T13:48:08.488Z,12.54
2022-12-24T13:50:36.948Z,12.63
2022-12-24T13:53:06.169Z,12.59
2022-12-24T13:55:34.234Z,12.35
2022-12-24T13:58:03.881Z,12.52
2022-12-24T14:00:36.541Z,12.48
2022-12-24T14:03:06.414Z,12.54
2022-12-24T14:05:46.483Z,12.52
2022-12-24T14:08:25.543Z,12.49
2022-12-24T14:11:00.931Z,12.53
2022-12-24T14:13:39.926Z,12.47
2022-12-24T14:16:15.931Z,12.44
2022-12-24T14:18:46.142Z,12.48
2022-12-24T14:21:21.806Z,12.43
2022-12-24T14:24:07.130Z,12.41
2022-12-24T14:26:43.985Z,12.36
2022-12-24T14:29:25.381Z,12.11
2022-12-24T14:31:58.345Z,12.07
2022-12-24T14:34:26.056Z,12.36
2022-12-24T14:36:55.818Z,12.35
2022-12-24T14:39:28.687Z,12.39
2022-12-24T14:42:17.740Z,12.18
2022-12-24T14:44:59.561Z,12.21
2022-12-24T14:47:40.322Z,12.31
2022-12-24T14:50:28.837Z,12.38
2022-12-24T14:53:25.348Z,12.08
2022-12-24T14:55:53.498Z,12.03
2022-12-24T14:58:28.584Z,12.06
2022-12-24T15:00:59.728Z,12.38
2022-12-24T15:03:29.733Z,12.33
2022-12-24T15:06:00.569Z,12.40
2022-12-24T15:08:45.733Z,12.35
2022-12-24T15:11:22.478Z,12.40
2022-12-24T15:13:55.790Z,12.36
2022-12-24T15:16:28.855Z,12.22
2022-12-24T15:19:00.782Z,12.22
2022-12-24T15:21:41.113Z,12.20
2022-12-24T15:24:32.290Z,12.28
2022-12-24T15:27:00.263Z,12.30
2022-12-24T15:29:29.431Z,12.32
2022-12-24T15:31:58.820Z,12.20
2022-12-24T15:34:44.137Z,12.21
2022-12-24T15:37:10.702Z,12.17
2022-12-24T15:39:39.373Z,12.17
2022-12-24T15:42:13.950Z,12.21
2022-12-24T15:44:55.525Z,12.18
2022-12-24T15:47:45.699Z,11.92
2022-12-24T15:50:33.004Z,11.88
2022-12-24T15:53:19.986Z,12.18
2022-12-24T15:56:12.920Z,12.11
2022-12-24T15:58:44.517Z,12.08
2022-12-24T16:01:16.266Z,11.88
2022-12-24T16:03:59.147Z,11.86
2022-12-24T16:06:28.300Z,12.06
2022-12-24T16:08:56.469Z,11.92
2022-12-24T16:11:35.060Z,11.88
2022-12-24T16:14:12.539Z,12.06
2022-12-24T16:16:41.902Z,11.96
2022-12-24T16:19:20.222Z,11.86
2022-12-24T16:21:53.426Z,11.82
2022-12-24T16:24:29.364Z,11.79
2022-12-24T16:26:56.855Z,11.86
2022-12-24T16:29:24.447Z,12.08
2022-12-24T16:31:54.310Z,11.98
2022-12-24T16:34:24.663Z,11.89
2022-12-24T16:36:51.299Z,12.10
2022-12-24T16:39:23.900Z,12.17
2022-12-24T16:42:14.856Z,11.94
2022-12-24T16:44:42.328Z,11.77
2022-12-24T16:47:22.705Z,11.72
2022-12-24T16:49:50.564Z,11.70
2022-12-24T16:52:23.469Z,11.72
2022-12-24T16:54:50.650Z,11.70
2022-12-24T16:57:18.230Z,11.84
2022-12-24T16:59:45.547Z,11.85
2022-12-24T17:02:17.784Z,11.77
2022-12-24T17:04:45.171Z,11.64
2022-12-24T17:07:16.616Z,11.70
2022-12-24T17:09:43.710Z,11.78
2022-12-24T17:12:10.736Z,11.92
2022-12-24T17:14:39.180Z,11.81
2022-12-24T17:17:05.945Z,11.83
2022-12-24T17:19:32.688Z,11.81
2022-12-24T17:21:59.423Z,11.79
2022-12-24T17:24:26.084Z,11.69
2022-12-24T17:26:52.727Z,11.69
2022-12-24T17:29:19.402Z,11.68
2022-12-24T17:31:46.179Z,11.68
2022-12-24T17:34:12.932Z,11.68
2022-12-24T17:36:40.143Z,11.77
2022-12-24T17:39:06.878Z,11.79
2022-12-24T17:41:33.552Z,11.81
2022-12-24T17:44:00.254Z,11.62
2022-12-24T17:46:26.979Z,11.69
2022-12-24T17:48:55.066Z,11.72
2022-12-24T17:51:23.426Z,11.78
2022-12-24T17:53:50.771Z,11.76
2022-12-24T17:56:17.863Z,11.66
2022-12-24T17:58:47.034Z,11.71
2022-12-24T18:01:17.581Z,11.76
2022-12-24T18:03:45.466Z,11.79
2022-12-24T18:06:13.016Z,11.79
2022-12-24T18:08:41.840Z,11.85
2022-12-24T18:11:29.671Z,11.73
2022-12-24T18:13:57.234Z,11.65
2022-12-24T18:16:27.159Z,11.57
2022-12-24T18:18:54.603Z,11.54
2022-12-24T18:21:24.418Z,11.54
2022-12-24T18:23:52.224Z,11.58
2022-12-24T18:26:19.997Z,11.44
2022-12-24T18:28:47.468Z,11.17
2022-12-24T18:31:20.625Z,11.52
2022-12-24T18:33:51.743Z,11.44
2022-12-24T18:36:19.609Z,11.34
2022-12-24T18:38:47.699Z,11.41
2022-12-24T18:41:18.077Z,11.52
2022-12-24T18:43:44.807Z,11.41
2022-12-24T18:46:13.919Z,11.40
2022-12-24T18:48:40.831Z,11.51
2022-12-24T18:51:09.207Z,11.43
2022-12-24T18:53:38.540Z,11.50
2022-12-24T18:56:14.252Z,11.46
2022-12-24T18:58:42.468Z,11.38
2022-12-24T19:01:15.398Z,11.47
2022-12-24T19:03:42.706Z,11.46
2022-12-24T19:06:11.058Z,11.28
2022-12-24T19:08:57.016Z,11.26
2022-12-24T19:11:24.656Z,11.32
2022-12-24T19:13:52.908Z,11.48
2022-12-24T19:16:20.720Z,11.42
2022-12-24T19:18:48.944Z,11.54
2022-12-24T19:21:20.404Z,11.45
2022-12-24T19:23:51.732Z,11.40
2022-12-24T19:26:19.908Z,11.20
2022-12-24T19:28:50.182Z,11.63
2022-12-24T19:31:22.892Z,11.49
2022-12-24T19:33:51.895Z,11.41
2022-12-24T19:36:21.507Z,11.40
2022-12-24T19:38:48.579Z,11.39
2022-12-24T19:41:19.763Z,11.57
2022-12-24T19:43:51.399Z,11.32
2022-12-24T19:46:24.574Z,11.30
2022-12-24T19:48:54.041Z,11.37
2022-12-24T19:51:21.754Z,11.14
2022-12-24T19:53:49.561Z,11.16
2022-12-24T19:56:20.883Z,10.99
2022-12-24T19:58:48.712Z,11.15
2022-12-24T20:01:21.429Z,11.19
2022-12-24T20:03:49.920Z,11.25
2022-12-24T20:06:21.926Z,11.44
2022-12-24T20:08:49.276Z,11.35
2022-12-24T20:11:20.111Z,11.32
2022-12-24T20:13:47.833Z,11.34
2022-12-24T20:16:20.418Z,11.44
2022-12-24T20:18:54.942Z,11.46
2022-12-24T20:21:23.014Z,11.50
2022-12-24T20:23:49.864Z,11.50
2022-12-24T20:26:19.501Z,11.53
2022-12-24T20:28:47.009Z,11.45
2022-12-24T20:31:30.906Z,11.52
2022-12-24T20:34:00.294Z,11.62
2022-12-24T20:36:29.038Z,11.54
2022-12-24T20:38:58.157Z,11.62
2022-12-24T20:41:26.633Z,11.78
2022-12-24T20:43:53.641Z,11.93
2022-12-24T20:46:23.075Z,11.96
2022-12-24T20:48:50.477Z,11.73
2022-12-24T20:51:26.384Z,11.72
2022-12-24T20:53:55.111Z,11.63
2022-12-24T20:56:22.841Z,11.55
2022-12-24T20:58:50.288Z,11.47
2022-12-24T21:01:26.458Z,11.34
2022-12-24T21:03:55.488Z,11.17
2022-12-24T21:06:25.695Z,11.26
2022-12-24T21:08:53.628Z,10.94
2022-12-24T21:11:41.015Z,10.80
2022-12-24T21:14:10.122Z,10.97
2022-12-24T21:16:42.170Z,10.88
2022-12-24T21:19:14.607Z,10.92
2022-12-24T21:21:42.549Z,11.00
2022-12-24T21:24:10.737Z,11.17
2022-12-24T21:26:38.344Z,11.29
2022-12-24T21:29:08.541Z,11.33
2022-12-24T21:31:37.040Z,11.23
2022-12-24T21:34:04.615Z,11.29
2022-12-24T21:36:31.705Z,11.76
2022-12-24T21:39:00.143Z,11.54
2022-12-24T21:41:27.450Z,11.59
2022-12-24T21:44:00.595Z,11.28
2022-12-24T21:46:30.518Z,11.22
2022-12-24T21:49:15.863Z,11.36
2022-12-24T21:51:44.751Z,11.27
2022-12-24T21:54:23.727Z,11.25
2022-12-24T21:57:10.244Z,11.33
2022-12-24T21:59:37.402Z,11.19
2022-12-24T22:02:05.751Z,11.29
2022-12-24T22:04:33.323Z,11.22
2022-12-24T22:07:19.239Z,11.07
2022-12-24T22:10:04.595Z,11.04
2022-12-24T22:12:34.233Z,11.27
2022-12-24T22:15:05.801Z,11.25
2022-12-24T22:17:41.014Z,11.23
2022-12-24T22:20:08.511Z,10.98
2022-12-24T22:22:35.464Z,10.98
2022-12-24T22:25:02.663Z,11.09
2022-12-24T22:27:31.205Z,10.99
2022-12-24T22:29:59.312Z,10.71
2022-12-24T22:32:26.160Z,11.26
2022-12-24T22:34:55.315Z,11.08
2022-12-24T22:37:22.214Z,10.69
2022-12-24T22:39:49.081Z,10.87
2022-12-24T22:42:15.853Z,10.76
2022-12-24T22:44:42.797Z,11.29
2022-12-24T22:47:09.579Z,11.10
2022-12-24T22:49:38.285Z,11.26
2022-12-24T22:52:05.506Z,11.04
2022-12-24T22:54:32.983Z,10.98
2022-12-24T22:56:59.671Z,10.92
2022-12-24T22:59:26.500Z,10.85
2022-12-24T23:01:53.843Z,10.73
2022-12-24T23:04:20.789Z,10.90
2022-12-24T23:06:47.641Z,11.22
2022-12-24T23:09:15.884Z,11.22
2022-12-24T23:11:44.131Z,10.79
2022-12-24T23:14:35.442Z,10.83
2022-12-24T23:17:02.717Z,10.76
2022-12-24T23:19:31.882Z,10.80
2022-12-24T23:21:58.790Z,10.85
2022-12-24T23:24:27.362Z,10.84
2022-12-24T23:26:55.112Z,10.91
2022-12-24T23:29:22.026Z,11.10
2022-12-24T23:31:50.236Z,10.94
2022-12-24T23:34:23.116Z,11.00
2022-12-24T23:36:50.105Z,11.26
2022-12-24T23:39:23.313Z,11.30
2022-12-24T23:41:50.691Z,11.15
2022-12-24T23:44:19.835Z,10.97
2022-12-24T23:46:48.730Z,10.78
2022-12-24T23:49:15.628Z,10.61
2022-12-24T23:51:42.399Z,10.84
2022-12-24T23:54:09.193Z,10.84
2022-12-24T23:56:35.923Z,10.77
2022-12-24T23:59:03.743Z,11.23
